sensor_id;sensor_type;location;lat;lon;timestamp;temperature;humidity
9509;DHT22;4792;50.088;8.122;2022-11-13T00:01:14;6.40;99.90
9509;DHT22;4792;50.088;8.122;2022-11-13T00:03:42;6.60;99.90
9509;DHT22;4792;50.088;8.122;2022-11-13T00:06:12;6.70;99.90
9509;DHT22;4792;50.088;8.122;2022-11-13T00:08:40;7.00;99.90
9509;DHT22;4792;50.088;8.122;2022-11-13T00:11:13;7.20;99.90
9509;DHT22;4792;50.088;8.122;2022-11-13T00:13:41;7.50;99.90
9509;DHT22;4792;50.088;8.122;2022-11-13T00:16:13;7.80;99.90
9509;DHT22;4792;50.088;8.122;2022-11-13T00:18:42;8.10;99.90
9509;DHT22;4792;50.088;8.122;2022-11-13T00:21:14;8.40;99.90
9509;DHT22;4792;50.088;8.122;2022-11-13T00:23:43;8.60;99.90
9509;DHT22;4792;50.088;8.122;2022-11-13T00:26:13;8.70;99.90
9509;DHT22;4792;50.088;8.122;2022-11-13T00:28:42;8.80;99.90
9509;DHT22;4792;50.088;8.122;2022-11-13T00:31:13;8.90;99.90
9509;DHT22;4792;50.088;8.122;2022-11-13T00:33:42;8.90;99.90
9509;DHT22;4792;50.088;8.122;2022-11-13T00:36:30;9.00;99.90
9509;DHT22;4792;50.088;8.122;2022-11-13T00:38:58;9.00;99.90
9509;DHT22;4792;50.088;8.122;2022-11-13T00:41:27;9.00;99.90
9509;DHT22;4792;50.088;8.122;2022-11-13T00:43:55;9.10;99.90
9509;DHT22;4792;50.088;8.122;2022-11-13T00:46:24;9.10;99.90
9509;DHT22;4792;50.088;8.122;2022-11-13T00:48:53;9.20;99.90
9509;DHT22;4792;50.088;8.122;2022-11-13T00:51:21;9.10;99.90
9509;DHT22;4792;50.088;8.122;2022-11-13T00:53:52;9.20;99.90
9509;DHT22;4792;50.088;8.122;2022-11-13T00:56:20;9.20;99.90
9509;DHT22;4792;50.088;8.122;2022-11-13T00:58:49;9.30;99.90
9509;DHT22;4792;50.088;8.122;2022-11-13T01:01:20;9.30;99.90
9509;DHT22;4792;50.088;8.122;2022-11-13T01:03:50;9.40;99.90
9509;DHT22;4792;50.088;8.122;2022-11-13T01:06:21;9.40;99.90
9509;DHT22;4792;50.088;8.122;2022-11-13T01:08:53;9.40;99.90
9509;DHT22;4792;50.088;8.122;2022-11-13T01:11:23;9.30;99.90
9509;DHT22;4792;50.088;8.122;2022-11-13T01:13:52;9.30;99.90
9509;DHT22;4792;50.088;8.122;2022-11-13T01:16:22;9.40;99.90
9509;DHT22;4792;50.088;8.122;2022-11-13T01:18:52;9.30;99.90
9509;DHT22;4792;50.088;8.122;2022-11-13T01:21:23;9.30;99.90
9509;DHT22;4792;50.088;8.122;2022-11-13T01:23:51;9.30;99.90
9509;DHT22;4792;50.088;8.122;2022-11-13T01:26:22;9.20;99.90
9509;DHT22;4792;50.088;8.122;2022-11-13T01:28:50;9.30;99.90
9509;DHT22;4792;50.088;8.122;2022-11-13T01:31:21;9.20;99.90
9509;DHT22;4792;50.088;8.122;2022-11-13T01:33:51;9.30;99.90
9509;DHT22;4792;50.088;8.122;2022-11-13T01:36:21;9.20;99.90
9509;DHT22;4792;50.088;8.122;2022-11-13T01:38:50;9.20;99.90
9509;DHT22;4792;50.088;8.122;2022-11-13T01:41:20;9.20;99.90
9509;DHT22;4792;50.088;8.122;2022-11-13T01:43:50;9.20;99.90
9509;DHT22;4792;50.088;8.122;2022-11-13T01:46:23;9.30;99.90
9509;DHT22;4792;50.088;8.122;2022-11-13T01:48:57;9.30;99.90
9509;DHT22;4792;50.088;8.122;2022-11-13T01:51:29;9.30;99.90
9509;DHT22;4792;50.088;8.122;2022-11-13T01:54:01;9.30;99.90
9509;DHT22;4792;50.088;8.122;2022-11-13T01:56:29;9.30;99.90
9509;DHT22;4792;50.088;8.122;2022-11-13T01:59:08;9.20;99.90
9509;DHT22;4792;50.088;8.122;2022-11-13T02:01:36;9.20;99.90
9509;DHT22;4792;50.088;8.122;2022-11-13T02:04:06;9.20;99.90
9509;DHT22;4792;50.088;8.122;2022-11-13T02:06:38;9.20;99.90
9509;DHT22;4792;50.088;8.122;2022-11-13T02:09:09;9.20;99.90
9509;DHT22;4792;50.088;8.122;2022-11-13T02:11:38;9.20;99.90
9509;DHT22;4792;50.088;8.122;2022-11-13T02:14:07;9.10;99.90
9509;DHT22;4792;50.088;8.122;2022-11-13T02:16:37;9.10;99.90
9509;DHT22;4792;50.088;8.122;2022-11-13T02:19:11;9.00;99.90
9509;DHT22;4792;50.088;8.122;2022-11-13T02:21:56;9.00;99.90
9509;DHT22;4792;50.088;8.122;2022-11-13T02:24:29;8.90;99.90
9509;DHT22;4792;50.088;8.122;2022-11-13T02:27:02;8.90;99.90
9509;DHT22;4792;50.088;8.122;2022-11-13T02:29:31;8.90;99.90
9509;DHT22;4792;50.088;8.122;2022-11-13T02:31:59;8.90;99.90
9509;DHT22;4792;50.088;8.122;2022-11-13T02:34:27;8.80;99.90
9509;DHT22;4792;50.088;8.122;2022-11-13T02:36:55;8.80;99.90
9509;DHT22;4792;50.088;8.122;2022-11-13T02:39:23;8.80;99.90
9509;DHT22;4792;50.088;8.122;2022-11-13T02:41:53;8.80;99.90
9509;DHT22;4792;50.088;8.122;2022-11-13T02:44:21;8.80;99.90
9509;DHT22;4792;50.088;8.122;2022-11-13T02:46:49;8.80;99.90
9509;DHT22;4792;50.088;8.122;2022-11-13T02:49:17;8.80;99.90
9509;DHT22;4792;50.088;8.122;2022-11-13T02:51:48;8.80;99.90
9509;DHT22;4792;50.088;8.122;2022-11-13T02:54:16;8.90;99.90
9509;DHT22;4792;50.088;8.122;2022-11-13T02:56:44;8.90;99.90
9509;DHT22;4792;50.088;8.122;2022-11-13T02:59:14;8.90;99.90
9509;DHT22;4792;50.088;8.122;2022-11-13T03:01:42;8.90;99.90
9509;DHT22;4792;50.088;8.122;2022-11-13T03:04:10;9.00;99.90
9509;DHT22;4792;50.088;8.122;2022-11-13T03:06:38;9.00;99.90
9509;DHT22;4792;50.088;8.122;2022-11-13T03:09:06;9.00;99.90
9509;DHT22;4792;50.088;8.122;2022-11-13T03:11:34;9.00;99.90
9509;DHT22;4792;50.088;8.122;2022-11-13T03:14:02;9.00;99.90
9509;DHT22;4792;50.088;8.122;2022-11-13T03:16:33;8.90;99.90
9509;DHT22;4792;50.088;8.122;2022-11-13T03:19:02;8.80;99.90
9509;DHT22;4792;50.088;8.122;2022-11-13T03:21:31;8.80;99.90
9509;DHT22;4792;50.088;8.122;2022-11-13T03:23:59;8.80;99.90
9509;DHT22;4792;50.088;8.122;2022-11-13T03:26:28;8.80;99.90
9509;DHT22;4792;50.088;8.122;2022-11-13T03:28:56;8.70;99.90
9509;DHT22;4792;50.088;8.122;2022-11-13T03:31:24;8.80;99.90
9509;DHT22;4792;50.088;8.122;2022-11-13T03:33:53;8.80;99.90
9509;DHT22;4792;50.088;8.122;2022-11-13T03:36:22;8.90;99.90
9509;DHT22;4792;50.088;8.122;2022-11-13T03:38:50;8.90;99.90
9509;DHT22;4792;50.088;8.122;2022-11-13T03:41:18;8.90;99.90
9509;DHT22;4792;50.088;8.122;2022-11-13T03:43:46;8.90;99.90
9509;DHT22;4792;50.088;8.122;2022-11-13T03:46:14;8.90;99.90
9509;DHT22;4792;50.088;8.122;2022-11-13T03:48:43;9.00;99.90
9509;DHT22;4792;50.088;8.122;2022-11-13T03:51:13;9.00;99.90
9509;DHT22;4792;50.088;8.122;2022-11-13T03:53:41;9.10;99.90
9509;DHT22;4792;50.088;8.122;2022-11-13T03:56:09;9.10;99.90
9509;DHT22;4792;50.088;8.122;2022-11-13T03:58:37;9.10;99.90
9509;DHT22;4792;50.088;8.122;2022-11-13T04:01:06;9.20;99.90
9509;DHT22;4792;50.088;8.122;2022-11-13T04:03:34;9.20;99.90
9509;DHT22;4792;50.088;8.122;2022-11-13T04:06:02;9.20;99.90
9509;DHT22;4792;50.088;8.122;2022-11-13T04:08:32;9.20;99.90
9509;DHT22;4792;50.088;8.122;2022-11-13T04:11:05;9.20;99.90
9509;DHT22;4792;50.088;8.122;2022-11-13T04:13:34;9.20;99.90
9509;DHT22;4792;50.088;8.122;2022-11-13T04:16:02;9.30;99.90
9509;DHT22;4792;50.088;8.122;2022-11-13T04:18:31;9.30;99.90
9509;DHT22;4792;50.088;8.122;2022-11-13T04:20:59;9.40;99.90
9509;DHT22;4792;50.088;8.122;2022-11-13T04:23:28;9.40;99.90
9509;DHT22;4792;50.088;8.122;2022-11-13T04:25:57;9.40;99.90
9509;DHT22;4792;50.088;8.122;2022-11-13T04:28:25;9.40;99.90
9509;DHT22;4792;50.088;8.122;2022-11-13T04:30:55;9.40;99.90
9509;DHT22;4792;50.088;8.122;2022-11-13T04:33:23;9.50;99.90
9509;DHT22;4792;50.088;8.122;2022-11-13T04:35:51;9.50;99.90
9509;DHT22;4792;50.088;8.122;2022-11-13T04:38:19;9.50;99.90
9509;DHT22;4792;50.088;8.122;2022-11-13T04:40:49;9.50;99.90
9509;DHT22;4792;50.088;8.122;2022-11-13T04:43:38;9.40;99.90
9509;DHT22;4792;50.088;8.122;2022-11-13T04:46:06;9.40;99.90
9509;DHT22;4792;50.088;8.122;2022-11-13T04:48:34;9.30;99.90
9509;DHT22;4792;50.088;8.122;2022-11-13T04:51:03;9.30;99.90
9509;DHT22;4792;50.088;8.122;2022-11-13T04:53:31;9.30;99.90
9509;DHT22;4792;50.088;8.122;2022-11-13T04:56:00;9.30;99.90
9509;DHT22;4792;50.088;8.122;2022-11-13T04:58:28;9.30;99.90
9509;DHT22;4792;50.088;8.122;2022-11-13T05:00:58;9.20;99.90
9509;DHT22;4792;50.088;8.122;2022-11-13T05:03:26;9.20;99.90
9509;DHT22;4792;50.088;8.122;2022-11-13T05:06:01;9.20;99.90
9509;DHT22;4792;50.088;8.122;2022-11-13T05:08:29;9.20;99.90
9509;DHT22;4792;50.088;8.122;2022-11-13T05:10:57;9.10;99.90
9509;DHT22;4792;50.088;8.122;2022-11-13T05:13:26;9.10;99.90
9509;DHT22;4792;50.088;8.122;2022-11-13T05:16:00;9.10;99.90
9509;DHT22;4792;50.088;8.122;2022-11-13T05:18:28;9.00;99.90
9509;DHT22;4792;50.088;8.122;2022-11-13T05:20:57;9.00;99.90
9509;DHT22;4792;50.088;8.122;2022-11-13T05:23:26;9.00;99.90
9509;DHT22;4792;50.088;8.122;2022-11-13T05:26:00;9.00;99.90
9509;DHT22;4792;50.088;8.122;2022-11-13T05:28:28;9.00;99.90
9509;DHT22;4792;50.088;8.122;2022-11-13T05:31:04;9.00;99.90
9509;DHT22;4792;50.088;8.122;2022-11-13T05:33:33;9.00;99.90
9509;DHT22;4792;50.088;8.122;2022-11-13T05:36:02;8.90;99.90
9509;DHT22;4792;50.088;8.122;2022-11-13T05:38:31;8.90;99.90
9509;DHT22;4792;50.088;8.122;2022-11-13T05:41:03;8.90;99.90
9509;DHT22;4792;50.088;8.122;2022-11-13T05:43:31;8.90;99.90
9509;DHT22;4792;50.088;8.122;2022-11-13T05:46:01;8.90;99.90
9509;DHT22;4792;50.088;8.122;2022-11-13T05:48:30;8.90;99.90
9509;DHT22;4792;50.088;8.122;2022-11-13T05:51:03;8.80;99.90
9509;DHT22;4792;50.088;8.122;2022-11-13T05:53:31;8.80;99.90
9509;DHT22;4792;50.088;8.122;2022-11-13T05:56:02;8.70;99.90
9509;DHT22;4792;50.088;8.122;2022-11-13T05:58:31;8.70;99.90
9509;DHT22;4792;50.088;8.122;2022-11-13T06:01:10;8.60;99.90
9509;DHT22;4792;50.088;8.122;2022-11-13T06:03:41;8.60;99.90
9509;DHT22;4792;50.088;8.122;2022-11-13T06:06:11;8.60;99.90
9509;DHT22;4792;50.088;8.122;2022-11-13T06:08:40;8.50;99.90
9509;DHT22;4792;50.088;8.122;2022-11-13T06:11:10;8.50;99.90
9509;DHT22;4792;50.088;8.122;2022-11-13T06:13:39;8.50;99.90
9509;DHT22;4792;50.088;8.122;2022-11-13T06:16:13;8.60;99.90
9509;DHT22;4792;50.088;8.122;2022-11-13T06:18:43;8.60;99.90
9509;DHT22;4792;50.088;8.122;2022-11-13T06:21:13;8.70;99.90
9509;DHT22;4792;50.088;8.122;2022-11-13T06:23:42;8.80;99.90
9509;DHT22;4792;50.088;8.122;2022-11-13T06:26:12;8.80;99.90
9509;DHT22;4792;50.088;8.122;2022-11-13T06:28:40;8.80;99.90
9509;DHT22;4792;50.088;8.122;2022-11-13T06:31:10;8.70;99.90
9509;DHT22;4792;50.088;8.122;2022-11-13T06:33:40;8.80;99.90
9509;DHT22;4792;50.088;8.122;2022-11-13T06:36:12;8.80;99.90
9509;DHT22;4792;50.088;8.122;2022-11-13T06:38:40;8.70;99.90
9509;DHT22;4792;50.088;8.122;2022-11-13T06:41:11;8.80;99.90
9509;DHT22;4792;50.088;8.122;2022-11-13T06:43:39;8.90;99.90
9509;DHT22;4792;50.088;8.122;2022-11-13T06:46:10;9.10;99.90
9509;DHT22;4792;50.088;8.122;2022-11-13T06:48:39;9.20;99.90
9509;DHT22;4792;50.088;8.122;2022-11-13T06:51:12;9.30;99.90
9509;DHT22;4792;50.088;8.122;2022-11-13T06:53:41;9.50;99.90
9509;DHT22;4792;50.088;8.122;2022-11-13T06:56:10;9.70;99.90
9509;DHT22;4792;50.088;8.122;2022-11-13T06:58:39;10.10;99.90
9509;DHT22;4792;50.088;8.122;2022-11-13T07:01:08;10.50;99.90
9509;DHT22;4792;50.088;8.122;2022-11-13T07:03:37;10.80;99.90
9509;DHT22;4792;50.088;8.122;2022-11-13T07:06:08;11.00;99.90
9509;DHT22;4792;50.088;8.122;2022-11-13T07:08:41;11.10;99.90
9509;DHT22;4792;50.088;8.122;2022-11-13T07:11:10;11.20;99.90
9509;DHT22;4792;50.088;8.122;2022-11-13T07:13:39;11.20;99.90
9509;DHT22;4792;50.088;8.122;2022-11-13T07:16:08;11.00;99.90
9509;DHT22;4792;50.088;8.122;2022-11-13T07:18:43;10.90;99.90
9509;DHT22;4792;50.088;8.122;2022-11-13T07:21:11;10.80;99.90
9509;DHT22;4792;50.088;8.122;2022-11-13T07:23:41;10.70;99.90
9509;DHT22;4792;50.088;8.122;2022-11-13T07:26:10;10.60;99.90
9509;DHT22;4792;50.088;8.122;2022-11-13T07:28:38;10.60;99.90
9509;DHT22;4792;50.088;8.122;2022-11-13T07:31:06;10.70;99.90
9509;DHT22;4792;50.088;8.122;2022-11-13T07:33:35;10.80;99.90
9509;DHT22;4792;50.088;8.122;2022-11-13T07:36:04;10.90;99.90
9509;DHT22;4792;50.088;8.122;2022-11-13T07:38:33;11.00;99.90
9509;DHT22;4792;50.088;8.122;2022-11-13T07:41:03;11.30;99.90
9509;DHT22;4792;50.088;8.122;2022-11-13T07:43:32;11.40;99.90
9509;DHT22;4792;50.088;8.122;2022-11-13T07:46:00;11.50;99.90
9509;DHT22;4792;50.088;8.122;2022-11-13T07:48:29;11.60;99.90
9509;DHT22;4792;50.088;8.122;2022-11-13T07:50:59;11.70;99.90
9509;DHT22;4792;50.088;8.122;2022-11-13T07:53:28;11.80;99.90
9509;DHT22;4792;50.088;8.122;2022-11-13T07:55:59;11.90;99.90
9509;DHT22;4792;50.088;8.122;2022-11-13T07:58:30;12.00;99.90
9509;DHT22;4792;50.088;8.122;2022-11-13T08:01:01;12.10;99.90
9509;DHT22;4792;50.088;8.122;2022-11-13T08:03:30;12.30;99.90
9509;DHT22;4792;50.088;8.122;2022-11-13T08:05:59;12.40;99.90
9509;DHT22;4792;50.088;8.122;2022-11-13T08:08:28;12.60;99.90
9509;DHT22;4792;50.088;8.122;2022-11-13T08:10:57;12.80;99.90
9509;DHT22;4792;50.088;8.122;2022-11-13T08:13:25;12.70;99.90
9509;DHT22;4792;50.088;8.122;2022-11-13T08:15:57;12.90;99.90
9509;DHT22;4792;50.088;8.122;2022-11-13T08:18:26;13.00;99.90
9509;DHT22;4792;50.088;8.122;2022-11-13T08:20:55;13.10;99.90
9509;DHT22;4792;50.088;8.122;2022-11-13T08:23:23;13.10;99.90
9509;DHT22;4792;50.088;8.122;2022-11-13T08:25:51;13.20;99.90
9509;DHT22;4792;50.088;8.122;2022-11-13T08:28:19;13.30;99.90
9509;DHT22;4792;50.088;8.122;2022-11-13T08:30:47;13.40;99.90
9509;DHT22;4792;50.088;8.122;2022-11-13T08:33:17;13.50;99.90
9509;DHT22;4792;50.088;8.122;2022-11-13T08:35:52;13.50;99.90
9509;DHT22;4792;50.088;8.122;2022-11-13T08:38:20;13.40;99.90
9509;DHT22;4792;50.088;8.122;2022-11-13T08:40:49;13.40;99.90
9509;DHT22;4792;50.088;8.122;2022-11-13T08:43:17;13.30;99.90
9509;DHT22;4792;50.088;8.122;2022-11-13T08:45:45;13.20;99.90
9509;DHT22;4792;50.088;8.122;2022-11-13T08:48:14;13.10;99.90
9509;DHT22;4792;50.088;8.122;2022-11-13T08:50:43;13.00;99.90
9509;DHT22;4792;50.088;8.122;2022-11-13T08:53:12;13.10;99.90
9509;DHT22;4792;50.088;8.122;2022-11-13T08:55:40;13.20;99.90
9509;DHT22;4792;50.088;8.122;2022-11-13T08:58:08;13.40;99.90
9509;DHT22;4792;50.088;8.122;2022-11-13T09:00:36;13.70;99.90
9509;DHT22;4792;50.088;8.122;2022-11-13T09:03:05;13.90;99.90
9509;DHT22;4792;50.088;8.122;2022-11-13T09:05:33;14.20;99.90
9509;DHT22;4792;50.088;8.122;2022-11-13T09:08:03;14.20;99.90
9509;DHT22;4792;50.088;8.122;2022-11-13T09:10:32;14.30;99.90
9509;DHT22;4792;50.088;8.122;2022-11-13T09:13:02;14.50;99.90
9509;DHT22;4792;50.088;8.122;2022-11-13T09:15:31;14.70;99.90
9509;DHT22;4792;50.088;8.122;2022-11-13T09:18:00;14.90;99.90
9509;DHT22;4792;50.088;8.122;2022-11-13T09:20:30;14.90;99.90
9509;DHT22;4792;50.088;8.122;2022-11-13T09:23:00;15.10;99.90
9509;DHT22;4792;50.088;8.122;2022-11-13T09:25:30;15.40;99.90
9509;DHT22;4792;50.088;8.122;2022-11-13T09:28:04;15.50;99.90
9509;DHT22;4792;50.088;8.122;2022-11-13T09:30:33;15.70;99.90
9509;DHT22;4792;50.088;8.122;2022-11-13T09:33:11;15.80;99.90
9509;DHT22;4792;50.088;8.122;2022-11-13T09:35:49;15.70;99.90
9509;DHT22;4792;50.088;8.122;2022-11-13T09:39:05;15.80;99.90
9509;DHT22;4792;50.088;8.122;2022-11-13T09:41:41;16.00;99.90
9509;DHT22;4792;50.088;8.122;2022-11-13T09:44:15;16.20;99.90
9509;DHT22;4792;50.088;8.122;2022-11-13T09:47:34;16.40;99.90
9509;DHT22;4792;50.088;8.122;2022-11-13T09:50:10;16.40;99.90
9509;DHT22;4792;50.088;8.122;2022-11-13T09:52:46;16.40;99.90
9509;DHT22;4792;50.088;8.122;2022-11-13T09:55:17;16.40;99.90
9509;DHT22;4792;50.088;8.122;2022-11-13T09:57:52;16.50;99.90
9509;DHT22;4792;50.088;8.122;2022-11-13T10:00:24;16.60;99.90
9509;DHT22;4792;50.088;8.122;2022-11-13T10:03:09;16.60;99.90
9509;DHT22;4792;50.088;8.122;2022-11-13T10:05:44;16.70;99.90
9509;DHT22;4792;50.088;8.122;2022-11-13T10:08:15;16.70;99.90
9509;DHT22;4792;50.088;8.122;2022-11-13T10:10:50;16.70;99.90
9509;DHT22;4792;50.088;8.122;2022-11-13T10:13:27;16.70;99.90
9509;DHT22;4792;50.088;8.122;2022-11-13T10:16:02;17.10;99.90
9509;DHT22;4792;50.088;8.122;2022-11-13T10:18:34;17.20;99.90
9509;DHT22;4792;50.088;8.122;2022-11-13T10:21:11;17.00;99.90
9509;DHT22;4792;50.088;8.122;2022-11-13T10:23:48;17.30;99.90
9509;DHT22;4792;50.088;8.122;2022-11-13T10:26:19;17.30;99.90
9509;DHT22;4792;50.088;8.122;2022-11-13T10:28:58;17.40;99.90
9509;DHT22;4792;50.088;8.122;2022-11-13T10:31:27;17.40;99.90
9509;DHT22;4792;50.088;8.122;2022-11-13T10:33:56;17.30;99.90
9509;DHT22;4792;50.088;8.122;2022-11-13T10:36:33;17.40;99.90
9509;DHT22;4792;50.088;8.122;2022-11-13T10:39:05;17.50;99.90
9509;DHT22;4792;50.088;8.122;2022-11-13T10:41:44;17.60;99.90
9509;DHT22;4792;50.088;8.122;2022-11-13T10:44:20;17.70;99.90
9509;DHT22;4792;50.088;8.122;2022-11-13T10:46:48;17.80;99.90
9509;DHT22;4792;50.088;8.122;2022-11-13T10:49:18;18.00;99.90
9509;DHT22;4792;50.088;8.122;2022-11-13T10:51:54;18.10;99.90
9509;DHT22;4792;50.088;8.122;2022-11-13T10:54:24;17.90;99.90
9509;DHT22;4792;50.088;8.122;2022-11-13T10:56:57;17.70;99.90
9509;DHT22;4792;50.088;8.122;2022-11-13T10:59:37;17.70;99.90
9509;DHT22;4792;50.088;8.122;2022-11-13T11:02:16;17.90;99.90
9509;DHT22;4792;50.088;8.122;2022-11-13T11:04:44;18.30;99.90
9509;DHT22;4792;50.088;8.122;2022-11-13T11:07:14;18.60;99.90
9509;DHT22;4792;50.088;8.122;2022-11-13T11:09:48;18.70;97.80
9509;DHT22;4792;50.088;8.122;2022-11-13T11:12:18;18.90;97.70
9509;DHT22;4792;50.088;8.122;2022-11-13T11:15:17;19.10;97.30
9509;DHT22;4792;50.088;8.122;2022-11-13T11:17:49;19.00;94.90
9509;DHT22;4792;50.088;8.122;2022-11-13T11:20:35;19.00;94.30
9509;DHT22;4792;50.088;8.122;2022-11-13T11:23:19;18.90;93.90
9509;DHT22;4792;50.088;8.122;2022-11-13T11:25:53;19.10;94.30
9509;DHT22;4792;50.088;8.122;2022-11-13T11:28:29;19.60;92.80
9509;DHT22;4792;50.088;8.122;2022-11-13T11:31:04;20.10;91.60
9509;DHT22;4792;50.088;8.122;2022-11-13T11:33:35;20.30;85.80
9509;DHT22;4792;50.088;8.122;2022-11-13T11:36:12;20.00;86.80
9509;DHT22;4792;50.088;8.122;2022-11-13T11:38:53;20.20;85.30
9509;DHT22;4792;50.088;8.122;2022-11-13T11:41:35;20.20;84.40
9509;DHT22;4792;50.088;8.122;2022-11-13T11:44:14;20.20;82.90
9509;DHT22;4792;50.088;8.122;2022-11-13T11:46:45;20.70;80.30
9509;DHT22;4792;50.088;8.122;2022-11-13T11:49:14;20.90;78.00
9509;DHT22;4792;50.088;8.122;2022-11-13T11:51:49;21.20;76.90
9509;DHT22;4792;50.088;8.122;2022-11-13T11:54:28;21.40;74.10
9509;DHT22;4792;50.088;8.122;2022-11-13T11:57:11;21.60;71.40
9509;DHT22;4792;50.088;8.122;2022-11-13T11:59:55;21.60;67.30
9509;DHT22;4792;50.088;8.122;2022-11-13T12:05:22;21.60;66.50
9509;DHT22;4792;50.088;8.122;2022-11-13T12:08:02;21.40;63.10
9509;DHT22;4792;50.088;8.122;2022-11-13T12:10:41;21.30;63.40
9509;DHT22;4792;50.088;8.122;2022-11-13T12:13:27;21.20;64.10
9509;DHT22;4792;50.088;8.122;2022-11-13T12:16:01;21.30;62.80
9509;DHT22;4792;50.088;8.122;2022-11-13T12:18:43;21.60;63.20
9509;DHT22;4792;50.088;8.122;2022-11-13T12:21:21;21.40;62.80
9509;DHT22;4792;50.088;8.122;2022-11-13T12:24:10;21.30;64.00
9509;DHT22;4792;50.088;8.122;2022-11-13T12:26:46;20.40;64.60
9509;DHT22;4792;50.088;8.122;2022-11-13T12:29:27;20.30;66.30
9509;DHT22;4792;50.088;8.122;2022-11-13T12:32:06;20.50;70.20
9509;DHT22;4792;50.088;8.122;2022-11-13T12:34:39;20.20;71.80
9509;DHT22;4792;50.088;8.122;2022-11-13T12:37:11;20.40;74.90
9509;DHT22;4792;50.088;8.122;2022-11-13T12:39:45;21.10;77.80
9509;DHT22;4792;50.088;8.122;2022-11-13T12:42:20;21.80;79.60
9509;DHT22;4792;50.088;8.122;2022-11-13T12:44:59;22.10;75.00
9509;DHT22;4792;50.088;8.122;2022-11-13T12:47:33;21.70;73.50
9509;DHT22;4792;50.088;8.122;2022-11-13T12:50:05;21.10;75.70
9509;DHT22;4792;50.088;8.122;2022-11-13T12:52:34;20.70;80.00
9509;DHT22;4792;50.088;8.122;2022-11-13T12:55:04;20.10;82.30
9509;DHT22;4792;50.088;8.122;2022-11-13T12:57:32;19.00;88.20
9509;DHT22;4792;50.088;8.122;2022-11-13T13:00:19;18.10;91.40
9509;DHT22;4792;50.088;8.122;2022-11-13T13:03:00;17.40;92.90
9509;DHT22;4792;50.088;8.122;2022-11-13T13:05:46;17.00;94.40
9509;DHT22;4792;50.088;8.122;2022-11-13T13:08:33;17.20;95.00
9509;DHT22;4792;50.088;8.122;2022-11-13T13:11:18;17.70;94.30
9509;DHT22;4792;50.088;8.122;2022-11-13T13:13:55;17.70;93.50
9509;DHT22;4792;50.088;8.122;2022-11-13T13:16:28;17.60;93.70
9509;DHT22;4792;50.088;8.122;2022-11-13T13:19:07;18.20;94.90
9509;DHT22;4792;50.088;8.122;2022-11-13T13:21:51;18.90;93.70
9509;DHT22;4792;50.088;8.122;2022-11-13T13:24:31;19.40;93.80
9509;DHT22;4792;50.088;8.122;2022-11-13T13:26:59;19.80;92.80
9509;DHT22;4792;50.088;8.122;2022-11-13T13:29:29;20.00;93.10
9509;DHT22;4792;50.088;8.122;2022-11-13T13:32:03;20.20;92.30
9509;DHT22;4792;50.088;8.122;2022-11-13T13:34:45;20.80;92.10
9509;DHT22;4792;50.088;8.122;2022-11-13T13:37:24;21.60;91.40
9509;DHT22;4792;50.088;8.122;2022-11-13T13:40:07;22.20;89.40
9509;DHT22;4792;50.088;8.122;2022-11-13T13:42:51;22.70;86.90
9509;DHT22;4792;50.088;8.122;2022-11-13T13:45:27;23.30;84.70
9509;DHT22;4792;50.088;8.122;2022-11-13T13:47:59;23.80;82.50
9509;DHT22;4792;50.088;8.122;2022-11-13T13:50:30;23.90;80.00
9509;DHT22;4792;50.088;8.122;2022-11-13T13:53:01;24.10;78.30
9509;DHT22;4792;50.088;8.122;2022-11-13T13:55:31;23.50;78.60
9509;DHT22;4792;50.088;8.122;2022-11-13T13:58:01;22.60;82.20
9509;DHT22;4792;50.088;8.122;2022-11-13T14:00:31;22.00;83.60
9509;DHT22;4792;50.088;8.122;2022-11-13T14:03:01;21.40;86.50
9509;DHT22;4792;50.088;8.122;2022-11-13T14:05:31;21.60;87.30
9509;DHT22;4792;50.088;8.122;2022-11-13T14:08:01;22.10;86.10
9509;DHT22;4792;50.088;8.122;2022-11-13T14:10:35;22.50;84.80
9509;DHT22;4792;50.088;8.122;2022-11-13T14:13:03;22.90;85.40
9509;DHT22;4792;50.088;8.122;2022-11-13T14:15:33;23.00;83.10
9509;DHT22;4792;50.088;8.122;2022-11-13T14:18:07;23.50;81.80
9509;DHT22;4792;50.088;8.122;2022-11-13T14:20:41;23.90;76.00
9509;DHT22;4792;50.088;8.122;2022-11-13T14:23:17;23.40;72.70
9509;DHT22;4792;50.088;8.122;2022-11-13T14:25:46;24.10;70.30
9509;DHT22;4792;50.088;8.122;2022-11-13T14:28:16;24.30;69.60
9509;DHT22;4792;50.088;8.122;2022-11-13T14:30:52;24.50;67.60
9509;DHT22;4792;50.088;8.122;2022-11-13T14:33:30;24.40;66.60
9509;DHT22;4792;50.088;8.122;2022-11-13T14:35:59;24.50;65.80
9509;DHT22;4792;50.088;8.122;2022-11-13T14:38:33;24.40;63.60
9509;DHT22;4792;50.088;8.122;2022-11-13T14:41:02;24.10;61.80
9509;DHT22;4792;50.088;8.122;2022-11-13T14:43:32;24.10;61.20
9509;DHT22;4792;50.088;8.122;2022-11-13T14:46:02;24.20;61.60
9509;DHT22;4792;50.088;8.122;2022-11-13T14:48:32;24.40;60.30
9509;DHT22;4792;50.088;8.122;2022-11-13T14:51:02;24.50;59.60
9509;DHT22;4792;50.088;8.122;2022-11-13T14:53:33;24.30;58.90
9509;DHT22;4792;50.088;8.122;2022-11-13T14:56:03;24.40;57.90
9509;DHT22;4792;50.088;8.122;2022-11-13T14:58:36;24.80;57.70
9509;DHT22;4792;50.088;8.122;2022-11-13T15:01:13;24.70;57.60
9509;DHT22;4792;50.088;8.122;2022-11-13T15:03:42;25.10;57.20
9509;DHT22;4792;50.088;8.122;2022-11-13T15:06:13;25.50;57.20
9509;DHT22;4792;50.088;8.122;2022-11-13T15:08:44;24.90;55.50
9509;DHT22;4792;50.088;8.122;2022-11-13T15:11:13;25.00;55.60
9509;DHT22;4792;50.088;8.122;2022-11-13T15:13:42;24.90;54.70
9509;DHT22;4792;50.088;8.122;2022-11-13T15:16:13;24.50;54.90
9509;DHT22;4792;50.088;8.122;2022-11-13T15:18:43;24.40;54.60
9509;DHT22;4792;50.088;8.122;2022-11-13T15:21:13;23.90;54.70
9509;DHT22;4792;50.088;8.122;2022-11-13T15:23:43;23.60;55.60
9509;DHT22;4792;50.088;8.122;2022-11-13T15:26:12;23.40;55.60
9509;DHT22;4792;50.088;8.122;2022-11-13T15:28:40;23.20;56.30
9509;DHT22;4792;50.088;8.122;2022-11-13T15:31:16;23.10;56.70
9509;DHT22;4792;50.088;8.122;2022-11-13T15:33:45;22.90;57.10
9509;DHT22;4792;50.088;8.122;2022-11-13T15:36:14;22.60;57.50
9509;DHT22;4792;50.088;8.122;2022-11-13T15:38:43;21.90;58.40
9509;DHT22;4792;50.088;8.122;2022-11-13T15:41:13;21.10;59.50
9509;DHT22;4792;50.088;8.122;2022-11-13T15:43:44;20.20;61.40
9509;DHT22;4792;50.088;8.122;2022-11-13T15:46:14;19.30;64.40
9509;DHT22;4792;50.088;8.122;2022-11-13T15:48:44;18.50;67.20
9509;DHT22;4792;50.088;8.122;2022-11-13T15:51:15;17.80;70.80
9509;DHT22;4792;50.088;8.122;2022-11-13T15:53:48;17.30;72.60
9509;DHT22;4792;50.088;8.122;2022-11-13T15:56:17;16.80;73.90
9509;DHT22;4792;50.088;8.122;2022-11-13T15:58:45;16.40;76.00
9509;DHT22;4792;50.088;8.122;2022-11-13T16:01:14;16.00;77.10
9509;DHT22;4792;50.088;8.122;2022-11-13T16:03:43;15.70;77.80
9509;DHT22;4792;50.088;8.122;2022-11-13T16:06:13;15.40;79.80
9509;DHT22;4792;50.088;8.122;2022-11-13T16:08:42;15.20;80.70
9509;DHT22;4792;50.088;8.122;2022-11-13T16:11:14;15.00;82.90
9509;DHT22;4792;50.088;8.122;2022-11-13T16:13:43;14.80;85.00
9509;DHT22;4792;50.088;8.122;2022-11-13T16:16:14;14.60;86.50
9509;DHT22;4792;50.088;8.122;2022-11-13T16:18:43;14.40;88.80
9509;DHT22;4792;50.088;8.122;2022-11-13T16:21:12;14.30;90.90
9509;DHT22;4792;50.088;8.122;2022-11-13T16:23:41;14.10;91.80
9509;DHT22;4792;50.088;8.122;2022-11-13T16:26:13;13.90;92.20
9509;DHT22;4792;50.088;8.122;2022-11-13T16:28:42;13.80;92.80
9509;DHT22;4792;50.088;8.122;2022-11-13T16:31:30;13.60;93.60
9509;DHT22;4792;50.088;8.122;2022-11-13T16:33:58;13.50;93.80
9509;DHT22;4792;50.088;8.122;2022-11-13T16:36:27;13.40;94.20
9509;DHT22;4792;50.088;8.122;2022-11-13T16:38:55;13.30;94.60
9509;DHT22;4792;50.088;8.122;2022-11-13T16:41:25;13.10;94.50